AAL1837 KDFW-KPHX
Flight info
| Callsign | AAL1837 |
|---|---|
| Flight time | 2h 13m |
| Altitude | 38000 |
| Route | WSTEX2 CIKAN EWM DRRVR PINNG1 |
| Aircraft | B38M/M-SDE1FGHILORVWXY/HB1 |
Departure
| Time | 2026-05-07 21:20 |
|---|---|
| Airport | Dallas Fort Worth International Airport (KDFW) |
Arrival
| Time | 2026-05-07 23:33 |
|---|---|
| Airport | Phoenix Sky Harbor International Airport (KPHX) |
| Time | Latitude | Longitude | Altitude | Speed | Heading |
|---|---|---|---|---|---|
| 2026-05-07 20:54 | 32.89747 | -97.03496 | 618 ft | 0 kts | 272° |
| 2026-05-07 21:09 | 32.89746 | -97.03485 | 618 ft | 4 kts | 270° |
| 2026-05-07 21:09 | 32.89748 | -97.03454 | 624 ft | 4 kts | 260° |
| 2026-05-07 21:09 | 32.89755 | -97.03423 | 618 ft | 4 kts | 242° |
| 2026-05-07 21:09 | 32.89772 | -97.03402 | 625 ft | 4 kts | 197° |
| 2026-05-07 21:10 | 32.89780 | -97.03400 | 628 ft | 1 kts | 180° |
| 2026-05-07 21:12 | 32.89766 | -97.03399 | 626 ft | 7 kts | 173° |
| 2026-05-07 21:12 | 32.89685 | -97.03360 | 621 ft | 17 kts | 146° |
| 2026-05-07 21:12 | 32.89619 | -97.03278 | 623 ft | 12 kts | 109° |
| 2026-05-07 21:13 | 32.89594 | -97.03198 | 630 ft | 11 kts | 154° |
| 2026-05-07 21:13 | 32.89509 | -97.03196 | 625 ft | 15 kts | 181° |
| 2026-05-07 21:13 | 32.89382 | -97.03196 | 622 ft | 20 kts | 180° |
| 2026-05-07 21:13 | 32.89236 | -97.03197 | 626 ft | 21 kts | 180° |
| 2026-05-07 21:14 | 32.89098 | -97.03197 | 618 ft | 18 kts | 180° |
| 2026-05-07 21:14 | 32.88967 | -97.03198 | 621 ft | 20 kts | 180° |
| 2026-05-07 21:14 | 32.88828 | -97.03200 | 624 ft | 20 kts | 180° |
| 2026-05-07 21:14 | 32.88684 | -97.03200 | 625 ft | 21 kts | 182° |
| 2026-05-07 21:15 | 32.88530 | -97.03201 | 618 ft | 23 kts | 180° |
| 2026-05-07 21:15 | 32.88370 | -97.03202 | 625 ft | 17 kts | 180° |
| 2026-05-07 21:15 | 32.88254 | -97.03202 | 624 ft | 18 kts | 180° |
| 2026-05-07 21:15 | 32.88190 | -97.03259 | 630 ft | 11 kts | 246° |
| 2026-05-07 21:16 | 32.88130 | -97.03288 | 627 ft | 10 kts | 178° |
| 2026-05-07 21:16 | 32.88054 | -97.03289 | 625 ft | 12 kts | 181° |
| 2026-05-07 21:16 | 32.87978 | -97.03288 | 625 ft | 12 kts | 180° |
| 2026-05-07 21:16 | 32.87931 | -97.03286 | 624 ft | 5 kts | 166° |
| 2026-05-07 21:17 | 32.87903 | -97.03252 | 620 ft | 7 kts | 109° |
| 2026-05-07 21:17 | 32.87899 | -97.03182 | 622 ft | 9 kts | 89° |
| 2026-05-07 21:17 | 32.87899 | -97.03139 | 627 ft | 0 kts | 89° |
| 2026-05-07 21:17 | 32.87899 | -97.03132 | 623 ft | 3 kts | 89° |
| 2026-05-07 21:18 | 32.87899 | -97.03058 | 618 ft | 12 kts | 90° |
| 2026-05-07 21:18 | 32.87942 | -97.03008 | 623 ft | 8 kts | 4° |
| 2026-05-07 21:18 | 32.87950 | -97.03008 | 626 ft | 0 kts | 1° |
| 2026-05-07 21:19 | 32.87992 | -97.03007 | 625 ft | 25 kts | 0° |
| 2026-05-07 21:19 | 32.88420 | -97.03006 | 628 ft | 96 kts | 0° |
| 2026-05-07 21:19 | 32.89294 | -97.03002 | 624 ft | 153 kts | 0° |
| 2026-05-07 21:20 | 32.90468 | -97.02997 | 926 ft | 176 kts | 0° |
| 2026-05-07 21:20 | 32.91718 | -97.02983 | 1622 ft | 184 kts | 1° |
| 2026-05-07 21:20 | 32.92994 | -97.03020 | 2473 ft | 184 kts | 359° |
| 2026-05-07 21:20 | 32.94355 | -97.03096 | 2956 ft | 208 kts | 358° |
| 2026-05-07 21:21 | 32.95896 | -97.03172 | 3372 ft | 236 kts | 358° |
| 2026-05-07 21:21 | 32.97483 | -97.03633 | 4343 ft | 237 kts | 334° |
| 2026-05-07 21:21 | 32.98815 | -97.04872 | 5147 ft | 251 kts | 311° |
| 2026-05-07 21:21 | 32.99954 | -97.06439 | 6167 ft | 250 kts | 310° |
| 2026-05-07 21:22 | 33.00856 | -97.08201 | 7082 ft | 250 kts | 284° |
| 2026-05-07 21:22 | 33.00995 | -97.10242 | 8048 ft | 249 kts | 267° |
| 2026-05-07 21:22 | 33.00906 | -97.12316 | 8967 ft | 251 kts | 266° |
| 2026-05-07 21:22 | 33.00806 | -97.14396 | 9945 ft | 252 kts | 265° |
| 2026-05-07 21:23 | 33.00692 | -97.16480 | 10790 ft | 254 kts | 263° |
| 2026-05-07 21:23 | 33.00497 | -97.18642 | 11263 ft | 272 kts | 263° |
| 2026-05-07 21:23 | 33.00279 | -97.20963 | 11617 ft | 292 kts | 263° |
| 2026-05-07 21:23 | 32.99931 | -97.23422 | 11915 ft | 311 kts | 251° |
| 2026-05-07 21:24 | 32.98826 | -97.25696 | 12388 ft | 326 kts | 234° |
| 2026-05-07 21:24 | 32.97446 | -97.27863 | 13077 ft | 329 kts | 236° |
| 2026-05-07 21:24 | 32.96055 | -97.30040 | 13879 ft | 332 kts | 235° |
| 2026-05-07 21:24 | 32.94647 | -97.32228 | 14546 ft | 334 kts | 235° |
| 2026-05-07 21:25 | 32.93228 | -97.34422 | 15211 ft | 337 kts | 235° |
| 2026-05-07 21:25 | 32.91791 | -97.36638 | 15876 ft | 340 kts | 235° |
| 2026-05-07 21:25 | 32.90339 | -97.38874 | 16557 ft | 341 kts | 235° |
| 2026-05-07 21:25 | 32.88886 | -97.41110 | 17214 ft | 343 kts | 235° |
| 2026-05-07 21:26 | 32.87419 | -97.43367 | 17857 ft | 346 kts | 235° |
| 2026-05-07 21:26 | 32.85941 | -97.45638 | 18474 ft | 349 kts | 235° |
| 2026-05-07 21:26 | 32.84453 | -97.47925 | 19041 ft | 351 kts | 235° |
| 2026-05-07 21:26 | 32.82956 | -97.50222 | 19503 ft | 352 kts | 235° |
| 2026-05-07 21:27 | 32.81451 | -97.52532 | 20056 ft | 354 kts | 236° |
| 2026-05-07 21:27 | 32.79938 | -97.54850 | 20589 ft | 356 kts | 236° |
| 2026-05-07 21:27 | 32.78417 | -97.57182 | 21126 ft | 358 kts | 236° |
| 2026-05-07 21:27 | 32.76884 | -97.59528 | 21656 ft | 360 kts | 236° |
| 2026-05-07 21:28 | 32.75342 | -97.61887 | 22138 ft | 363 kts | 236° |
| 2026-05-07 21:28 | 32.73790 | -97.64262 | 22652 ft | 365 kts | 236° |
| 2026-05-07 21:28 | 32.72231 | -97.66645 | 23148 ft | 367 kts | 236° |
| 2026-05-07 21:28 | 32.70683 | -97.69009 | 23626 ft | 369 kts | 236° |
| 2026-05-07 21:29 | 32.69123 | -97.71436 | 24027 ft | 369 kts | 240° |
| 2026-05-07 21:29 | 32.68075 | -97.74184 | 24425 ft | 367 kts | 256° |
| 2026-05-07 21:29 | 32.67672 | -97.77184 | 24812 ft | 370 kts | 261° |
| 2026-05-07 21:29 | 32.67361 | -97.80221 | 25211 ft | 372 kts | 262° |
| 2026-05-07 21:30 | 32.67082 | -97.83280 | 25628 ft | 373 kts | 262° |
| 2026-05-07 21:30 | 32.66821 | -97.86343 | 26023 ft | 375 kts | 262° |
| 2026-05-07 21:30 | 32.66568 | -97.89433 | 26405 ft | 376 kts | 262° |
| 2026-05-07 21:30 | 32.66321 | -97.92529 | 26784 ft | 378 kts | 262° |
| 2026-05-07 21:31 | 32.66075 | -97.95640 | 27150 ft | 380 kts | 262° |
| 2026-05-07 21:31 | 32.65827 | -97.98770 | 27513 ft | 381 kts | 261° |
| 2026-05-07 21:31 | 32.65579 | -98.01907 | 27885 ft | 382 kts | 261° |
| 2026-05-07 21:31 | 32.65329 | -98.05051 | 28229 ft | 384 kts | 261° |
| 2026-05-07 21:32 | 32.65078 | -98.08211 | 28565 ft | 385 kts | 261° |
| 2026-05-07 21:32 | 32.64825 | -98.11382 | 28906 ft | 386 kts | 261° |
| 2026-05-07 21:32 | 32.64571 | -98.14553 | 29344 ft | 385 kts | 260° |
| 2026-05-07 21:32 | 32.64318 | -98.17707 | 29863 ft | 382 kts | 260° |
| 2026-05-07 21:33 | 32.64066 | -98.20833 | 30327 ft | 380 kts | 260° |
| 2026-05-07 21:33 | 32.63816 | -98.23944 | 30751 ft | 377 kts | 260° |
| 2026-05-07 21:33 | 32.63567 | -98.27034 | 31169 ft | 376 kts | 260° |
| 2026-05-07 21:33 | 32.63317 | -98.30109 | 31602 ft | 374 kts | 260° |
| 2026-05-07 21:34 | 32.63069 | -98.33171 | 32032 ft | 371 kts | 260° |
| 2026-05-07 21:34 | 32.62820 | -98.36210 | 32453 ft | 370 kts | 259° |
| 2026-05-07 21:34 | 32.62572 | -98.39244 | 32805 ft | 370 kts | 259° |
| 2026-05-07 21:34 | 32.62325 | -98.42261 | 33208 ft | 368 kts | 259° |
| 2026-05-07 21:35 | 32.62077 | -98.45278 | 33645 ft | 366 kts | 259° |
| 2026-05-07 21:35 | 32.61830 | -98.48276 | 34082 ft | 364 kts | 259° |
| 2026-05-07 21:35 | 32.61583 | -98.51254 | 34450 ft | 362 kts | 259° |
| 2026-05-07 21:35 | 32.61337 | -98.54220 | 34811 ft | 360 kts | 259° |
| 2026-05-07 21:36 | 32.61093 | -98.57165 | 35158 ft | 359 kts | 259° |
| 2026-05-07 21:36 | 32.60847 | -98.60104 | 35484 ft | 357 kts | 259° |
| 2026-05-07 21:36 | 32.60602 | -98.63028 | 35804 ft | 356 kts | 259° |
| 2026-05-07 21:36 | 32.60358 | -98.65945 | 36105 ft | 354 kts | 259° |
| 2026-05-07 21:37 | 32.60114 | -98.68846 | 36406 ft | 353 kts | 260° |
| 2026-05-07 21:37 | 32.59869 | -98.71736 | 36709 ft | 352 kts | 260° |
| 2026-05-07 21:37 | 32.59625 | -98.74618 | 36957 ft | 351 kts | 259° |
| 2026-05-07 21:37 | 32.59381 | -98.77496 | 37211 ft | 350 kts | 259° |
| 2026-05-07 21:38 | 32.59137 | -98.80369 | 37468 ft | 349 kts | 259° |
| 2026-05-07 21:38 | 32.58893 | -98.83228 | 37731 ft | 348 kts | 259° |
| 2026-05-07 21:38 | 32.58649 | -98.86080 | 37980 ft | 347 kts | 259° |
| 2026-05-07 21:38 | 32.58405 | -98.88924 | 38082 ft | 347 kts | 259° |
| 2026-05-07 21:39 | 32.57921 | -98.94536 | 38079 ft | 343 kts | 259° |
| 2026-05-07 21:39 | 32.57434 | -99.00167 | 38055 ft | 343 kts | 259° |
| 2026-05-07 21:40 | 32.56944 | -99.05788 | 38053 ft | 344 kts | 259° |
| 2026-05-07 21:40 | 32.56450 | -99.11425 | 38032 ft | 344 kts | 259° |
| 2026-05-07 21:41 | 32.55954 | -99.17074 | 38030 ft | 345 kts | 259° |
| 2026-05-07 21:41 | 32.55454 | -99.22733 | 38034 ft | 345 kts | 259° |
| 2026-05-07 21:42 | 32.54953 | -99.28389 | 38033 ft | 345 kts | 259° |
| 2026-05-07 21:42 | 32.54507 | -99.34049 | 38022 ft | 346 kts | 261° |
| 2026-05-07 21:43 | 32.54178 | -99.39746 | 38054 ft | 347 kts | 261° |
| 2026-05-07 21:43 | 32.53836 | -99.45446 | 38060 ft | 347 kts | 261° |
| 2026-05-07 21:44 | 32.53490 | -99.51158 | 38073 ft | 349 kts | 260° |
| 2026-05-07 21:44 | 32.53140 | -99.56897 | 38074 ft | 349 kts | 260° |
| 2026-05-07 21:45 | 32.52787 | -99.62623 | 38085 ft | 349 kts | 260° |
| 2026-05-07 21:45 | 32.52432 | -99.68362 | 38087 ft | 349 kts | 260° |
| 2026-05-07 21:46 | 32.52073 | -99.74099 | 38083 ft | 349 kts | 260° |
| 2026-05-07 21:46 | 32.51712 | -99.79843 | 38054 ft | 349 kts | 260° |
| 2026-05-07 21:47 | 32.51348 | -99.85582 | 38052 ft | 350 kts | 260° |
| 2026-05-07 21:47 | 32.50981 | -99.91343 | 38055 ft | 351 kts | 260° |
| 2026-05-07 21:48 | 32.50612 | -99.97070 | 38042 ft | 351 kts | 260° |
| 2026-05-07 21:48 | 32.50239 | -100.02837 | 38037 ft | 351 kts | 260° |
| 2026-05-07 21:49 | 32.49863 | -100.08600 | 38029 ft | 351 kts | 260° |
| 2026-05-07 21:49 | 32.49484 | -100.14374 | 38019 ft | 351 kts | 260° |
| 2026-05-07 21:50 | 32.49103 | -100.20140 | 38020 ft | 351 kts | 260° |
| 2026-05-07 21:50 | 32.48718 | -100.25922 | 38014 ft | 353 kts | 259° |
| 2026-05-07 21:51 | 32.48333 | -100.31710 | 38076 ft | 353 kts | 259° |
| 2026-05-07 21:51 | 32.47953 | -100.37505 | 38092 ft | 353 kts | 259° |
| 2026-05-07 21:52 | 32.47570 | -100.43296 | 38094 ft | 353 kts | 259° |
| 2026-05-07 21:52 | 32.47186 | -100.49079 | 38086 ft | 353 kts | 259° |
| 2026-05-07 21:53 | 32.46798 | -100.54881 | 38089 ft | 353 kts | 259° |
| 2026-05-07 21:53 | 32.46473 | -100.59699 | 38082 ft | 354 kts | 259° |
| 2026-05-07 21:54 | 32.46078 | -100.65520 | 38062 ft | 355 kts | 259° |
| 2026-05-07 21:54 | 32.45681 | -100.71343 | 38050 ft | 355 kts | 259° |
| 2026-05-07 21:55 | 32.45281 | -100.77162 | 38032 ft | 355 kts | 259° |
| 2026-05-07 21:55 | 32.44878 | -100.82990 | 38012 ft | 355 kts | 259° |
| 2026-05-07 21:56 | 32.44472 | -100.88813 | 38024 ft | 355 kts | 259° |
| 2026-05-07 21:56 | 32.44063 | -100.94637 | 38016 ft | 355 kts | 259° |
| 2026-05-07 21:57 | 32.43652 | -101.00461 | 38019 ft | 355 kts | 259° |
| 2026-05-07 21:57 | 32.43238 | -101.06289 | 38009 ft | 355 kts | 259° |
| 2026-05-07 21:58 | 32.42822 | -101.12115 | 38008 ft | 355 kts | 259° |
| 2026-05-07 21:58 | 32.42402 | -101.17945 | 38000 ft | 356 kts | 259° |
| 2026-05-07 21:59 | 32.41979 | -101.23778 | 37997 ft | 356 kts | 259° |
| 2026-05-07 21:59 | 32.41554 | -101.29606 | 37995 ft | 356 kts | 259° |
| 2026-05-07 22:00 | 32.41125 | -101.35440 | 37997 ft | 356 kts | 259° |
| 2026-05-07 22:00 | 32.40695 | -101.41276 | 37996 ft | 356 kts | 259° |
| 2026-05-07 22:01 | 32.40265 | -101.47073 | 37991 ft | 356 kts | 259° |
| 2026-05-07 22:01 | 32.39825 | -101.52950 | 37989 ft | 356 kts | 258° |
| 2026-05-07 22:02 | 32.39384 | -101.58791 | 37990 ft | 356 kts | 259° |
| 2026-05-07 22:02 | 32.38944 | -101.64594 | 37987 ft | 356 kts | 258° |
| 2026-05-07 22:03 | 32.38499 | -101.70432 | 37991 ft | 357 kts | 258° |
| 2026-05-07 22:03 | 32.38051 | -101.76282 | 37986 ft | 357 kts | 258° |
| 2026-05-07 22:04 | 32.37600 | -101.82128 | 37981 ft | 357 kts | 258° |
| 2026-05-07 22:04 | 32.37146 | -101.87978 | 37982 ft | 357 kts | 258° |
| 2026-05-07 22:05 | 32.36689 | -101.93828 | 37985 ft | 357 kts | 258° |
| 2026-05-07 22:05 | 32.36230 | -101.99679 | 37985 ft | 357 kts | 258° |
| 2026-05-07 22:06 | 32.35768 | -102.05522 | 37987 ft | 357 kts | 258° |
| 2026-05-07 22:06 | 32.35303 | -102.11376 | 37986 ft | 358 kts | 258° |
| 2026-05-07 22:07 | 32.34835 | -102.17227 | 37978 ft | 358 kts | 258° |
| 2026-05-07 22:07 | 32.34363 | -102.23088 | 37989 ft | 358 kts | 258° |
| 2026-05-07 22:08 | 32.33889 | -102.28951 | 37985 ft | 358 kts | 258° |
| 2026-05-07 22:08 | 32.33412 | -102.34814 | 37985 ft | 358 kts | 258° |
| 2026-05-07 22:09 | 32.32933 | -102.40673 | 37984 ft | 358 kts | 258° |
| 2026-05-07 22:09 | 32.32449 | -102.46540 | 37989 ft | 359 kts | 258° |
| 2026-05-07 22:10 | 32.31963 | -102.52419 | 37985 ft | 359 kts | 258° |
| 2026-05-07 22:10 | 32.31473 | -102.58302 | 37985 ft | 359 kts | 258° |
| 2026-05-07 22:11 | 32.30981 | -102.64180 | 37981 ft | 359 kts | 258° |
| 2026-05-07 22:11 | 32.30489 | -102.70021 | 37980 ft | 359 kts | 258° |
| 2026-05-07 22:12 | 32.29988 | -102.75937 | 37978 ft | 359 kts | 258° |
| 2026-05-07 22:12 | 32.29487 | -102.81822 | 37985 ft | 361 kts | 257° |
| 2026-05-07 22:13 | 32.28985 | -102.87681 | 37979 ft | 361 kts | 257° |
| 2026-05-07 22:13 | 32.28477 | -102.93583 | 37980 ft | 361 kts | 257° |
| 2026-05-07 22:14 | 32.27966 | -102.99483 | 37975 ft | 361 kts | 257° |
| 2026-05-07 22:14 | 32.27453 | -103.05379 | 37977 ft | 361 kts | 257° |
| 2026-05-07 22:15 | 32.26937 | -103.11278 | 37974 ft | 361 kts | 257° |
| 2026-05-07 22:15 | 32.26418 | -103.17179 | 37972 ft | 362 kts | 257° |
| 2026-05-07 22:16 | 32.25894 | -103.23099 | 37973 ft | 363 kts | 257° |
| 2026-05-07 22:16 | 32.25367 | -103.29022 | 37975 ft | 362 kts | 257° |
| 2026-05-07 22:17 | 32.24837 | -103.34942 | 37976 ft | 362 kts | 257° |
| 2026-05-07 22:17 | 32.24305 | -103.40860 | 37974 ft | 362 kts | 257° |
| 2026-05-07 22:18 | 32.23502 | -103.49737 | 37994 ft | 362 kts | 257° |
| 2026-05-07 22:19 | 32.22961 | -103.55673 | 37977 ft | 364 kts | 257° |
| 2026-05-07 22:19 | 32.22416 | -103.61625 | 37976 ft | 365 kts | 257° |
| 2026-05-07 22:20 | 32.21870 | -103.67574 | 37970 ft | 364 kts | 257° |
| 2026-05-07 22:20 | 32.21319 | -103.73520 | 37967 ft | 364 kts | 257° |
| 2026-05-07 22:21 | 32.20766 | -103.79471 | 37962 ft | 364 kts | 257° |
| 2026-05-07 22:21 | 32.20210 | -103.85414 | 37963 ft | 364 kts | 257° |
| 2026-05-07 22:22 | 32.19649 | -103.91381 | 37969 ft | 367 kts | 257° |
| 2026-05-07 22:22 | 32.19083 | -103.97373 | 37963 ft | 367 kts | 257° |
| 2026-05-07 22:23 | 32.18515 | -104.03367 | 37962 ft | 367 kts | 257° |
| 2026-05-07 22:23 | 32.17943 | -104.09357 | 38016 ft | 367 kts | 257° |
| 2026-05-07 22:24 | 32.17373 | -104.15305 | 38021 ft | 367 kts | 257° |
| 2026-05-07 22:24 | 32.16795 | -104.21289 | 38025 ft | 367 kts | 257° |
| 2026-05-07 22:25 | 32.16213 | -104.27295 | 38027 ft | 370 kts | 257° |
| 2026-05-07 22:25 | 32.15625 | -104.33335 | 38028 ft | 370 kts | 257° |
| 2026-05-07 22:26 | 32.15034 | -104.39372 | 38016 ft | 370 kts | 257° |
| 2026-05-07 22:26 | 32.14440 | -104.45410 | 38002 ft | 370 kts | 256° |
| 2026-05-07 22:27 | 32.13844 | -104.51445 | 37987 ft | 370 kts | 256° |
| 2026-05-07 22:27 | 32.13245 | -104.57481 | 37976 ft | 370 kts | 256° |
| 2026-05-07 22:28 | 32.12643 | -104.63526 | 37959 ft | 371 kts | 257° |
| 2026-05-07 22:28 | 32.12037 | -104.69563 | 37949 ft | 370 kts | 257° |
| 2026-05-07 22:29 | 32.11429 | -104.75595 | 37944 ft | 371 kts | 256° |
| 2026-05-07 22:29 | 32.10817 | -104.81636 | 37961 ft | 371 kts | 256° |
| 2026-05-07 22:30 | 32.10204 | -104.87668 | 37937 ft | 370 kts | 256° |
| 2026-05-07 22:30 | 32.09587 | -104.93702 | 37969 ft | 370 kts | 256° |
| 2026-05-07 22:31 | 32.08964 | -104.99763 | 37938 ft | 374 kts | 256° |
| 2026-05-07 22:31 | 32.08335 | -105.05855 | 37929 ft | 374 kts | 256° |
| 2026-05-07 22:32 | 32.07703 | -105.11942 | 37911 ft | 374 kts | 256° |
| 2026-05-07 22:32 | 32.07068 | -105.18033 | 37918 ft | 374 kts | 256° |
| 2026-05-07 22:33 | 32.06431 | -105.24123 | 37908 ft | 374 kts | 256° |
| 2026-05-07 22:33 | 32.05790 | -105.30213 | 37920 ft | 375 kts | 256° |
| 2026-05-07 22:34 | 32.05143 | -105.36348 | 37908 ft | 379 kts | 256° |
| 2026-05-07 22:34 | 32.04489 | -105.42510 | 37904 ft | 379 kts | 256° |
| 2026-05-07 22:35 | 32.03832 | -105.48675 | 37901 ft | 379 kts | 256° |
| 2026-05-07 22:35 | 32.03171 | -105.54849 | 37921 ft | 380 kts | 256° |
| 2026-05-07 22:36 | 32.02504 | -105.61025 | 37900 ft | 379 kts | 256° |
| 2026-05-07 22:36 | 32.01838 | -105.67183 | 37913 ft | 381 kts | 256° |
| 2026-05-07 22:37 | 32.01163 | -105.73407 | 37908 ft | 384 kts | 256° |
| 2026-05-07 22:37 | 32.00484 | -105.79637 | 37900 ft | 383 kts | 256° |
| 2026-05-07 22:38 | 31.99801 | -105.85875 | 37905 ft | 384 kts | 256° |
| 2026-05-07 22:38 | 31.99231 | -105.91053 | 37896 ft | 384 kts | 256° |
| 2026-05-07 22:39 | 31.98543 | -105.97287 | 37893 ft | 384 kts | 256° |
| 2026-05-07 22:39 | 31.97852 | -106.03529 | 37910 ft | 387 kts | 256° |
| 2026-05-07 22:40 | 31.97149 | -106.09835 | 37914 ft | 389 kts | 256° |
| 2026-05-07 22:40 | 31.96443 | -106.16153 | 37951 ft | 389 kts | 256° |
| 2026-05-07 22:41 | 31.95735 | -106.22454 | 37972 ft | 389 kts | 256° |
| 2026-05-07 22:41 | 31.95381 | -106.28828 | 37989 ft | 399 kts | 269° |
| 2026-05-07 22:42 | 31.95960 | -106.35334 | 38009 ft | 399 kts | 268° |
| 2026-05-07 22:42 | 31.96509 | -106.41888 | 38001 ft | 405 kts | 268° |
| 2026-05-07 22:43 | 31.97062 | -106.48443 | 37984 ft | 405 kts | 268° |
| 2026-05-07 22:43 | 31.97615 | -106.55043 | 38001 ft | 405 kts | 268° |
| 2026-05-07 22:44 | 31.98165 | -106.61643 | 38015 ft | 404 kts | 268° |
| 2026-05-07 22:44 | 31.98711 | -106.68242 | 38024 ft | 405 kts | 268° |
| 2026-05-07 22:45 | 31.99256 | -106.74859 | 38016 ft | 408 kts | 268° |
| 2026-05-07 22:45 | 31.99801 | -106.81525 | 37994 ft | 409 kts | 268° |
| 2026-05-07 22:46 | 32.00343 | -106.88196 | 37910 ft | 409 kts | 268° |
| 2026-05-07 22:46 | 32.00880 | -106.94867 | 37938 ft | 410 kts | 268° |
| 2026-05-07 22:47 | 32.01419 | -107.01585 | 37915 ft | 413 kts | 268° |
| 2026-05-07 22:47 | 32.01957 | -107.08338 | 37889 ft | 416 kts | 269° |
| 2026-05-07 22:48 | 32.02496 | -107.15154 | 37877 ft | 419 kts | 269° |
| 2026-05-07 22:48 | 32.03032 | -107.21991 | 37849 ft | 419 kts | 269° |
| 2026-05-07 22:49 | 32.03562 | -107.28778 | 37842 ft | 418 kts | 269° |
| 2026-05-07 22:49 | 32.04095 | -107.35657 | 37842 ft | 419 kts | 269° |
| 2026-05-07 22:50 | 32.04618 | -107.42448 | 37874 ft | 420 kts | 269° |
| 2026-05-07 22:50 | 32.05145 | -107.49358 | 37906 ft | 425 kts | 269° |
| 2026-05-07 22:51 | 32.05671 | -107.56298 | 37933 ft | 425 kts | 269° |
| 2026-05-07 22:51 | 32.06192 | -107.63232 | 37966 ft | 425 kts | 269° |
| 2026-05-07 22:52 | 32.06711 | -107.70172 | 37967 ft | 425 kts | 269° |
| 2026-05-07 22:52 | 32.07225 | -107.77108 | 37971 ft | 426 kts | 269° |
| 2026-05-07 22:53 | 32.07739 | -107.84107 | 37860 ft | 430 kts | 269° |
| 2026-05-07 22:53 | 32.08252 | -107.91122 | 37855 ft | 429 kts | 269° |
| 2026-05-07 22:54 | 32.08760 | -107.98135 | 37847 ft | 429 kts | 269° |
| 2026-05-07 22:54 | 32.09264 | -108.05149 | 37856 ft | 429 kts | 269° |
| 2026-05-07 22:55 | 32.09764 | -108.12159 | 37859 ft | 429 kts | 269° |
| 2026-05-07 22:55 | 32.10261 | -108.19176 | 37853 ft | 429 kts | 269° |
| 2026-05-07 22:56 | 32.10753 | -108.26196 | 37859 ft | 429 kts | 269° |
| 2026-05-07 22:56 | 32.11242 | -108.33214 | 37859 ft | 429 kts | 269° |
| 2026-05-07 22:57 | 32.11727 | -108.40228 | 37873 ft | 429 kts | 269° |
| 2026-05-07 22:57 | 32.12209 | -108.47254 | 37912 ft | 431 kts | 269° |
| 2026-05-07 22:58 | 32.12688 | -108.54305 | 37925 ft | 431 kts | 269° |
| 2026-05-07 22:58 | 32.13160 | -108.61317 | 37944 ft | 431 kts | 269° |
| 2026-05-07 22:59 | 32.13635 | -108.68418 | 37955 ft | 431 kts | 269° |
| 2026-05-07 22:59 | 32.14100 | -108.75432 | 37854 ft | 432 kts | 269° |
| 2026-05-07 23:00 | 32.14565 | -108.82502 | 37850 ft | 434 kts | 270° |
| 2026-05-07 23:00 | 32.15028 | -108.89609 | 37854 ft | 435 kts | 270° |
| 2026-05-07 23:01 | 32.15488 | -108.96724 | 37847 ft | 435 kts | 270° |
| 2026-05-07 23:01 | 32.15943 | -109.03824 | 37860 ft | 435 kts | 270° |
| 2026-05-07 23:02 | 32.16396 | -109.10942 | 37852 ft | 435 kts | 269° |
| 2026-05-07 23:02 | 32.16846 | -109.18070 | 37860 ft | 437 kts | 270° |
| 2026-05-07 23:03 | 32.17294 | -109.25236 | 37857 ft | 438 kts | 270° |
| 2026-05-07 23:03 | 32.18241 | -109.32352 | 37864 ft | 444 kts | 280° |
| 2026-05-07 23:04 | 32.19740 | -109.39451 | 37854 ft | 447 kts | 280° |
| 2026-05-07 23:04 | 32.21250 | -109.46577 | 37873 ft | 447 kts | 280° |
| 2026-05-07 23:05 | 32.22761 | -109.53727 | 37866 ft | 450 kts | 281° |
| 2026-05-07 23:05 | 32.24275 | -109.60908 | 37852 ft | 450 kts | 281° |
| 2026-05-07 23:06 | 32.25782 | -109.68078 | 37860 ft | 450 kts | 281° |
| 2026-05-07 23:06 | 32.27287 | -109.75260 | 37870 ft | 451 kts | 281° |
| 2026-05-07 23:07 | 32.28787 | -109.82442 | 37865 ft | 451 kts | 281° |
| 2026-05-07 23:07 | 32.30292 | -109.89665 | 37868 ft | 453 kts | 281° |
| 2026-05-07 23:08 | 32.31794 | -109.96903 | 37862 ft | 453 kts | 281° |
| 2026-05-07 23:08 | 32.33295 | -110.04150 | 37864 ft | 455 kts | 281° |
| 2026-05-07 23:09 | 32.34801 | -110.11450 | 37863 ft | 457 kts | 282° |
| 2026-05-07 23:09 | 32.36299 | -110.18729 | 37016 ft | 457 kts | 282° |
| 2026-05-07 23:09 | 32.37053 | -110.22404 | 36110 ft | 463 kts | 282° |
| 2026-05-07 23:10 | 32.37812 | -110.26111 | 35353 ft | 464 kts | 283° |
| 2026-05-07 23:10 | 32.38572 | -110.29822 | 34684 ft | 464 kts | 283° |
| 2026-05-07 23:10 | 32.39333 | -110.33547 | 33982 ft | 466 kts | 283° |
| 2026-05-07 23:10 | 32.40094 | -110.37279 | 33083 ft | 469 kts | 284° |
| 2026-05-07 23:11 | 32.40862 | -110.41051 | 32192 ft | 472 kts | 284° |
| 2026-05-07 23:11 | 32.41621 | -110.44785 | 31393 ft | 474 kts | 285° |
| 2026-05-07 23:11 | 32.42389 | -110.48568 | 30590 ft | 476 kts | 286° |
| 2026-05-07 23:11 | 32.43174 | -110.52447 | 29652 ft | 480 kts | 287° |
| 2026-05-07 23:12 | 32.43951 | -110.56297 | 28721 ft | 478 kts | 287° |
| 2026-05-07 23:12 | 32.44713 | -110.60066 | 28392 ft | 468 kts | 287° |
| 2026-05-07 23:12 | 32.45473 | -110.63826 | 28203 ft | 470 kts | 287° |
| 2026-05-07 23:12 | 32.46218 | -110.67527 | 27927 ft | 467 kts | 286° |
| 2026-05-07 23:13 | 32.47217 | -110.71140 | 27461 ft | 456 kts | 301° |
| 2026-05-07 23:13 | 32.48880 | -110.74278 | 26984 ft | 449 kts | 309° |
| 2026-05-07 23:13 | 32.50604 | -110.77358 | 26523 ft | 447 kts | 308° |
| 2026-05-07 23:13 | 32.52320 | -110.80413 | 26024 ft | 444 kts | 308° |
| 2026-05-07 23:14 | 32.54036 | -110.83439 | 25519 ft | 440 kts | 308° |
| 2026-05-07 23:14 | 32.55739 | -110.86433 | 25032 ft | 436 kts | 308° |
| 2026-05-07 23:14 | 32.57455 | -110.89437 | 24501 ft | 434 kts | 308° |
| 2026-05-07 23:14 | 32.59120 | -110.92354 | 24031 ft | 431 kts | 308° |
| 2026-05-07 23:15 | 32.60791 | -110.95282 | 23568 ft | 428 kts | 308° |
| 2026-05-07 23:15 | 32.62453 | -110.98197 | 23021 ft | 425 kts | 307° |
| 2026-05-07 23:15 | 32.64103 | -111.01092 | 22494 ft | 422 kts | 307° |
| 2026-05-07 23:15 | 32.65740 | -111.03968 | 22005 ft | 418 kts | 307° |
| 2026-05-07 23:16 | 32.67358 | -111.06811 | 21557 ft | 414 kts | 307° |
| 2026-05-07 23:16 | 32.68960 | -111.09630 | 21102 ft | 410 kts | 307° |
| 2026-05-07 23:16 | 32.70550 | -111.12428 | 20642 ft | 407 kts | 307° |
| 2026-05-07 23:16 | 32.72124 | -111.15201 | 20173 ft | 402 kts | 307° |
| 2026-05-07 23:17 | 32.73669 | -111.17924 | 19726 ft | 392 kts | 307° |
| 2026-05-07 23:17 | 32.75174 | -111.20582 | 19243 ft | 384 kts | 307° |
| 2026-05-07 23:17 | 32.76644 | -111.23179 | 18821 ft | 375 kts | 307° |
| 2026-05-07 23:17 | 32.78087 | -111.25728 | 18411 ft | 368 kts | 307° |
| 2026-05-07 23:18 | 32.79508 | -111.28244 | 17953 ft | 366 kts | 306° |
| 2026-05-07 23:18 | 32.80926 | -111.30754 | 17501 ft | 365 kts | 306° |
| 2026-05-07 23:18 | 32.82333 | -111.33246 | 17077 ft | 362 kts | 306° |
| 2026-05-07 23:18 | 32.83734 | -111.35729 | 16755 ft | 361 kts | 306° |
| 2026-05-07 23:19 | 32.85124 | -111.38194 | 16371 ft | 358 kts | 306° |
| 2026-05-07 23:19 | 32.86506 | -111.40645 | 15977 ft | 355 kts | 306° |
| 2026-05-07 23:19 | 32.87865 | -111.43060 | 15591 ft | 347 kts | 306° |
| 2026-05-07 23:19 | 32.89192 | -111.45419 | 15203 ft | 339 kts | 306° |
| 2026-05-07 23:20 | 32.90534 | -111.47673 | 14797 ft | 329 kts | 315° |
| 2026-05-07 23:20 | 32.92312 | -111.49266 | 14422 ft | 316 kts | 337° |
| 2026-05-07 23:20 | 32.94267 | -111.50275 | 14102 ft | 307 kts | 339° |
| 2026-05-07 23:20 | 32.96209 | -111.51267 | 13766 ft | 303 kts | 339° |
| 2026-05-07 23:21 | 32.98151 | -111.52240 | 13405 ft | 303 kts | 340° |
| 2026-05-07 23:21 | 33.00091 | -111.53202 | 13034 ft | 301 kts | 340° |
| 2026-05-07 23:21 | 33.02024 | -111.54152 | 12676 ft | 300 kts | 340° |
| 2026-05-07 23:21 | 33.03952 | -111.55096 | 12333 ft | 299 kts | 340° |
| 2026-05-07 23:22 | 33.05858 | -111.56027 | 11985 ft | 293 kts | 340° |
| 2026-05-07 23:22 | 33.07727 | -111.56946 | 11653 ft | 287 kts | 340° |
| 2026-05-07 23:22 | 33.09548 | -111.57844 | 11347 ft | 279 kts | 340° |
| 2026-05-07 23:22 | 33.11326 | -111.58723 | 11037 ft | 275 kts | 340° |
| 2026-05-07 23:23 | 33.13083 | -111.59590 | 10732 ft | 272 kts | 340° |
| 2026-05-07 23:23 | 33.14812 | -111.60444 | 10427 ft | 268 kts | 340° |
| 2026-05-07 23:23 | 33.16527 | -111.61292 | 10127 ft | 265 kts | 340° |
| 2026-05-07 23:23 | 33.18223 | -111.62130 | 9832 ft | 263 kts | 340° |
| 2026-05-07 23:24 | 33.19904 | -111.62961 | 9519 ft | 260 kts | 340° |
| 2026-05-07 23:24 | 33.21570 | -111.63784 | 9198 ft | 258 kts | 340° |
| 2026-05-07 23:24 | 33.23203 | -111.64637 | 8878 ft | 256 kts | 336° |
| 2026-05-07 23:24 | 33.24798 | -111.65578 | 8535 ft | 255 kts | 336° |
| 2026-05-07 23:25 | 33.26396 | -111.66464 | 8213 ft | 252 kts | 339° |
| 2026-05-07 23:25 | 33.28016 | -111.67260 | 7870 ft | 252 kts | 340° |
| 2026-05-07 23:25 | 33.29649 | -111.68004 | 7521 ft | 251 kts | 341° |
| 2026-05-07 23:25 | 33.31305 | -111.68670 | 7174 ft | 250 kts | 341° |
| 2026-05-07 23:26 | 33.32942 | -111.69294 | 6830 ft | 245 kts | 341° |
| 2026-05-07 23:26 | 33.34553 | -111.69884 | 6474 ft | 240 kts | 341° |
| 2026-05-07 23:26 | 33.35608 | -111.70269 | 6248 ft | 238 kts | 341° |
| 2026-05-07 23:26 | 33.37179 | -111.70821 | 5890 ft | 235 kts | 341° |
| 2026-05-07 23:27 | 33.40797 | -111.72043 | 5029 ft | 231 kts | 341° |
| 2026-05-07 23:27 | 33.42304 | -111.72650 | 4634 ft | 226 kts | 326° |
| 2026-05-07 23:27 | 33.43393 | -111.73938 | 4236 ft | 218 kts | 297° |
| 2026-05-07 23:28 | 33.43794 | -111.75034 | 4104 ft | 209 kts | 285° |
| 2026-05-07 23:28 | 33.44043 | -111.76681 | 4022 ft | 196 kts | 273° |
| 2026-05-07 23:28 | 33.44068 | -111.78292 | 4002 ft | 192 kts | 269° |
| 2026-05-07 23:28 | 33.44059 | -111.79833 | 3988 ft | 181 kts | 269° |
| 2026-05-07 23:29 | 33.44057 | -111.81342 | 3847 ft | 182 kts | 269° |
| 2026-05-07 23:29 | 33.44059 | -111.82811 | 3664 ft | 171 kts | 270° |
| 2026-05-07 23:29 | 33.44061 | -111.84171 | 3502 ft | 155 kts | 269° |
| 2026-05-07 23:29 | 33.44062 | -111.85438 | 3325 ft | 150 kts | 269° |
| 2026-05-07 23:30 | 33.44065 | -111.86675 | 3123 ft | 148 kts | 269° |
| 2026-05-07 23:30 | 33.44067 | -111.87908 | 2919 ft | 148 kts | 269° |
| 2026-05-07 23:30 | 33.44070 | -111.89137 | 2722 ft | 147 kts | 269° |
| 2026-05-07 23:30 | 33.44069 | -111.90364 | 2545 ft | 148 kts | 269° |
| 2026-05-07 23:31 | 33.44071 | -111.91609 | 2366 ft | 151 kts | 269° |
| 2026-05-07 23:31 | 33.44072 | -111.92862 | 2165 ft | 150 kts | 270° |
| 2026-05-07 23:31 | 33.44074 | -111.94113 | 1943 ft | 151 kts | 270° |
| 2026-05-07 23:31 | 33.44075 | -111.95363 | 1775 ft | 151 kts | 270° |
| 2026-05-07 23:32 | 33.44076 | -111.96612 | 1593 ft | 149 kts | 272° |
| 2026-05-07 23:32 | 33.44082 | -111.97837 | 1388 ft | 147 kts | 273° |
| 2026-05-07 23:32 | 33.44080 | -111.99066 | 1195 ft | 147 kts | 273° |
| 2026-05-07 23:32 | 33.44085 | -112.00232 | 1133 ft | 123 kts | 271° |
| 2026-05-07 23:33 | 33.44085 | -112.00974 | 1132 ft | 58 kts | 270° |
| 2026-05-07 23:33 | 33.44080 | -112.01281 | 1137 ft | 18 kts | 259° |
| 2026-05-07 23:33 | 33.44039 | -112.01358 | 1133 ft | 7 kts | 224° |
| 2026-05-07 23:33 | 33.43988 | -112.01418 | 1130 ft | 13 kts | 219° |
| 2026-05-07 23:34 | 33.43920 | -112.01433 | 1119 ft | 8 kts | 151° |
| 2026-05-07 23:34 | 33.43902 | -112.01370 | 1125 ft | 9 kts | 91° |
| 2026-05-07 23:34 | 33.43901 | -112.01281 | 1127 ft | 13 kts | 90° |
| 2026-05-07 23:34 | 33.43901 | -112.01163 | 1127 ft | 15 kts | 90° |
| 2026-05-07 23:35 | 33.43901 | -112.01028 | 1127 ft | 17 kts | 90° |
| 2026-05-07 23:35 | 33.43901 | -112.00876 | 1127 ft | 19 kts | 90° |
| 2026-05-07 23:35 | 33.43901 | -112.00710 | 1127 ft | 20 kts | 89° |
| 2026-05-07 23:35 | 33.43901 | -112.00548 | 1127 ft | 17 kts | 90° |
| 2026-05-07 23:36 | 33.43904 | -112.00402 | 1127 ft | 19 kts | 89° |
| 2026-05-07 23:36 | 33.43904 | -112.00267 | 1127 ft | 12 kts | 90° |
| 2026-05-07 23:36 | 33.43900 | -112.00190 | 1127 ft | 6 kts | 119° |
| 2026-05-07 23:36 | 33.43855 | -112.00172 | 1123 ft | 5 kts | 178° |
| 2026-05-07 23:37 | 33.43839 | -112.00172 | 1122 ft | 0 kts | 180° |